sensor_id;sensor_type;location;lat;lon;timestamp;pressure;altitude;pressure_sealevel;temperature
68127;BMP180;54931;52.098;21.006;2022-09-09T00:04:55;100034.80;;;11.30
68127;BMP180;54931;52.098;21.006;2022-09-09T00:07:34;100024.00;;;11.26
68127;BMP180;54931;52.098;21.006;2022-09-09T00:10:34;100025.80;;;11.20
68127;BMP180;54931;52.098;21.006;2022-09-09T00:13:39;100021.00;;;11.20
68127;BMP180;54931;52.098;21.006;2022-09-09T00:16:17;100021.00;;;11.12
68127;BMP180;54931;52.098;21.006;2022-09-09T00:21:30;100023.20;;;11.10
68127;BMP180;54931;52.098;21.006;2022-09-09T00:24:01;100023.00;;;11.10
68127;BMP180;54931;52.098;21.006;2022-09-09T00:26:53;100023.00;;;11.00
68127;BMP180;54931;52.098;21.006;2022-09-09T00:29:34;100029.00;;;11.00
68127;BMP180;54931;52.098;21.006;2022-09-09T00:32:17;100029.60;;;11.00
68127;BMP180;54931;52.098;21.006;2022-09-09T00:34:55;100033.80;;;10.94
68127;BMP180;54931;52.098;21.006;2022-09-09T00:37:24;100029.20;;;10.90
68127;BMP180;54931;52.098;21.006;2022-09-09T00:39:59;100028.80;;;10.96
68127;BMP180;54931;52.098;21.006;2022-09-09T00:42:41;100028.40;;;10.90
68127;BMP180;54931;52.098;21.006;2022-09-09T00:47:51;100030.60;;;10.90
68127;BMP180;54931;52.098;21.006;2022-09-09T00:58:23;100033.80;;;10.90
68127;BMP180;54931;52.098;21.006;2022-09-09T01:00:55;100035.20;;;10.90
68127;BMP180;54931;52.098;21.006;2022-09-09T01:06:36;100033.80;;;10.92
68127;BMP180;54931;52.098;21.006;2022-09-09T01:17:07;100025.80;;;11.00
68127;BMP180;54931;52.098;21.006;2022-09-09T01:25:06;100014.20;;;11.00
68127;BMP180;54931;52.098;21.006;2022-09-09T01:27:36;100011.00;;;11.00
68127;BMP180;54931;52.098;21.006;2022-09-09T01:30:13;100011.80;;;11.00
68127;BMP180;54931;52.098;21.006;2022-09-09T01:32:45;100009.40;;;11.00
68127;BMP180;54931;52.098;21.006;2022-09-09T01:37:58;100004.00;;;11.00
68127;BMP180;54931;52.098;21.006;2022-09-09T01:40:25;100006.20;;;11.00
68127;BMP180;54931;52.098;21.006;2022-09-09T01:42:53;100012.20;;;11.10
68127;BMP180;54931;52.098;21.006;2022-09-09T01:45:22;100016.00;;;11.04
68127;BMP180;54931;52.098;21.006;2022-09-09T01:47:52;100021.60;;;11.10
68127;BMP180;54931;52.098;21.006;2022-09-09T01:50:20;100026.20;;;11.10
68127;BMP180;54931;52.098;21.006;2022-09-09T01:52:50;100023.80;;;11.10
68127;BMP180;54931;52.098;21.006;2022-09-09T01:55:28;100017.60;;;11.10
68127;BMP180;54931;52.098;21.006;2022-09-09T02:00:25;100020.00;;;11.10
68127;BMP180;54931;52.098;21.006;2022-09-09T02:03:16;100017.80;;;11.14
68127;BMP180;54931;52.098;21.006;2022-09-09T02:06:14;100016.00;;;11.20
68127;BMP180;54931;52.098;21.006;2022-09-09T02:08:48;100014.60;;;11.20
68127;BMP180;54931;52.098;21.006;2022-09-09T02:11:16;100012.80;;;11.20
68127;BMP180;54931;52.098;21.006;2022-09-09T02:13:46;100008.60;;;11.28
68127;BMP180;54931;52.098;21.006;2022-09-09T02:16:18;100015.20;;;11.30
68127;BMP180;54931;52.098;21.006;2022-09-09T02:18:57;100010.40;;;11.30
68127;BMP180;54931;52.098;21.006;2022-09-09T02:21:29;100011.20;;;11.30
68127;BMP180;54931;52.098;21.006;2022-09-09T02:23:59;100008.40;;;11.30
68127;BMP180;54931;52.098;21.006;2022-09-09T02:26:27;100003.40;;;11.24
68127;BMP180;54931;52.098;21.006;2022-09-09T02:28:57;100003.00;;;11.20
68127;BMP180;54931;52.098;21.006;2022-09-09T02:31:26;100004.00;;;11.20
68127;BMP180;54931;52.098;21.006;2022-09-09T02:33:59;100001.20;;;11.24
68127;BMP180;54931;52.098;21.006;2022-09-09T02:36:30;100013.00;;;11.20
68127;BMP180;54931;52.098;21.006;2022-09-09T02:39:00;100012.40;;;11.20
68127;BMP180;54931;52.098;21.006;2022-09-09T02:41:31;100011.00;;;11.22
68127;BMP180;54931;52.098;21.006;2022-09-09T02:43:59;100010.60;;;11.26
68127;BMP180;54931;52.098;21.006;2022-09-09T02:49:52;100013.80;;;11.26
68127;BMP180;54931;52.098;21.006;2022-09-09T02:53:01;100011.40;;;11.20
68127;BMP180;54931;52.098;21.006;2022-09-09T02:55:39;100012.60;;;11.20
68127;BMP180;54931;52.098;21.006;2022-09-09T02:58:11;100013.00;;;11.26
68127;BMP180;54931;52.098;21.006;2022-09-09T03:00:40;100012.00;;;11.30
68127;BMP180;54931;52.098;21.006;2022-09-09T03:03:08;100013.20;;;11.30
68127;BMP180;54931;52.098;21.006;2022-09-09T03:05:36;100020.60;;;11.30
68127;BMP180;54931;52.098;21.006;2022-09-09T03:08:04;100020.40;;;11.30
68127;BMP180;54931;52.098;21.006;2022-09-09T03:10:32;100017.00;;;11.30
68127;BMP180;54931;52.098;21.006;2022-09-09T03:13:00;100013.00;;;11.40
68127;BMP180;54931;52.098;21.006;2022-09-09T03:15:27;100014.20;;;11.40
68127;BMP180;54931;52.098;21.006;2022-09-09T03:17:58;100008.80;;;11.40
68127;BMP180;54931;52.098;21.006;2022-09-09T03:20:27;100003.20;;;11.30
68127;BMP180;54931;52.098;21.006;2022-09-09T03:22:55;100002.20;;;11.30
68127;BMP180;54931;52.098;21.006;2022-09-09T03:25:23;100001.60;;;11.30
68127;BMP180;54931;52.098;21.006;2022-09-09T03:27:53;100001.80;;;11.30
68127;BMP180;54931;52.098;21.006;2022-09-09T03:30:26;100002.00;;;11.30
68127;BMP180;54931;52.098;21.006;2022-09-09T03:32:53;100001.60;;;11.30
68127;BMP180;54931;52.098;21.006;2022-09-09T03:35:22;100001.40;;;11.30
68127;BMP180;54931;52.098;21.006;2022-09-09T03:37:49;100000.00;;;11.30
68127;BMP180;54931;52.098;21.006;2022-09-09T03:40:15;99997.00;;;11.40
68127;BMP180;54931;52.098;21.006;2022-09-09T03:42:43;100004.00;;;11.40
68127;BMP180;54931;52.098;21.006;2022-09-09T03:45:10;100003.40;;;11.40
68127;BMP180;54931;52.098;21.006;2022-09-09T03:47:37;100008.40;;;11.40
68127;BMP180;54931;52.098;21.006;2022-09-09T03:50:06;100009.40;;;11.40
68127;BMP180;54931;52.098;21.006;2022-09-09T03:52:39;100011.80;;;11.40
68127;BMP180;54931;52.098;21.006;2022-09-09T03:55:08;100015.20;;;11.40
68127;BMP180;54931;52.098;21.006;2022-09-09T03:57:35;100008.00;;;11.40
68127;BMP180;54931;52.098;21.006;2022-09-09T04:00:06;100012.20;;;11.40
68127;BMP180;54931;52.098;21.006;2022-09-09T04:02:34;100013.00;;;11.40
68127;BMP180;54931;52.098;21.006;2022-09-09T04:05:01;100014.80;;;11.40
68127;BMP180;54931;52.098;21.006;2022-09-09T04:07:28;100010.80;;;11.40
68127;BMP180;54931;52.098;21.006;2022-09-09T04:09:55;100016.00;;;11.48
68127;BMP180;54931;52.098;21.006;2022-09-09T04:12:22;100016.00;;;11.50
68127;BMP180;54931;52.098;21.006;2022-09-09T04:14:49;100016.20;;;11.54
68127;BMP180;54931;52.098;21.006;2022-09-09T04:17:16;100013.40;;;11.60
68127;BMP180;54931;52.098;21.006;2022-09-09T04:19:44;100010.00;;;11.60
68127;BMP180;54931;52.098;21.006;2022-09-09T04:22:11;100012.40;;;11.60
68127;BMP180;54931;52.098;21.006;2022-09-09T04:24:37;100009.40;;;11.60
68127;BMP180;54931;52.098;21.006;2022-09-09T04:27:04;100007.80;;;11.60
68127;BMP180;54931;52.098;21.006;2022-09-09T04:29:31;99997.60;;;11.60
68127;BMP180;54931;52.098;21.006;2022-09-09T04:31:58;99998.00;;;11.60
68127;BMP180;54931;52.098;21.006;2022-09-09T04:34:25;100003.80;;;11.60
68127;BMP180;54931;52.098;21.006;2022-09-09T04:36:52;100006.20;;;11.70
68127;BMP180;54931;52.098;21.006;2022-09-09T04:39:19;100011.40;;;11.70
68127;BMP180;54931;52.098;21.006;2022-09-09T04:41:46;100015.20;;;11.68
68127;BMP180;54931;52.098;21.006;2022-09-09T04:44:14;100011.60;;;11.70
68127;BMP180;54931;52.098;21.006;2022-09-09T04:46:41;100017.40;;;11.70
68127;BMP180;54931;52.098;21.006;2022-09-09T04:49:08;100014.00;;;11.70
68127;BMP180;54931;52.098;21.006;2022-09-09T04:51:35;100015.60;;;11.72
68127;BMP180;54931;52.098;21.006;2022-09-09T04:54:02;100014.80;;;11.80
68127;BMP180;54931;52.098;21.006;2022-09-09T04:56:29;100025.80;;;11.80
68127;BMP180;54931;52.098;21.006;2022-09-09T04:58:56;100022.40;;;11.80
68127;BMP180;54931;52.098;21.006;2022-09-09T05:01:23;100022.00;;;11.82
68127;BMP180;54931;52.098;21.006;2022-09-09T05:03:51;100021.80;;;11.80
68127;BMP180;54931;52.098;21.006;2022-09-09T05:06:21;100022.20;;;11.80
68127;BMP180;54931;52.098;21.006;2022-09-09T05:08:48;100025.80;;;11.80
68127;BMP180;54931;52.098;21.006;2022-09-09T05:11:21;100026.40;;;11.80
68127;BMP180;54931;52.098;21.006;2022-09-09T05:13:53;100029.80;;;11.90
68127;BMP180;54931;52.098;21.006;2022-09-09T05:16:21;100034.60;;;11.90
68127;BMP180;54931;52.098;21.006;2022-09-09T05:18:49;100038.40;;;11.90
68127;BMP180;54931;52.098;21.006;2022-09-09T05:21:22;100037.40;;;11.90
68127;BMP180;54931;52.098;21.006;2022-09-09T05:23:50;100041.00;;;11.90
68127;BMP180;54931;52.098;21.006;2022-09-09T05:26:22;100044.40;;;11.98
68127;BMP180;54931;52.098;21.006;2022-09-09T05:28:49;100042.80;;;12.00
68127;BMP180;54931;52.098;21.006;2022-09-09T05:31:18;100043.20;;;12.00
68127;BMP180;54931;52.098;21.006;2022-09-09T05:33:46;100042.40;;;12.00
68127;BMP180;54931;52.098;21.006;2022-09-09T05:36:20;100038.40;;;12.06
68127;BMP180;54931;52.098;21.006;2022-09-09T05:38:48;100036.80;;;12.10
68127;BMP180;54931;52.098;21.006;2022-09-09T05:41:16;100040.00;;;12.10
68127;BMP180;54931;52.098;21.006;2022-09-09T05:43:44;100036.60;;;12.00
68127;BMP180;54931;52.098;21.006;2022-09-09T05:46:13;100035.60;;;12.04
68127;BMP180;54931;52.098;21.006;2022-09-09T05:48:42;100034.80;;;12.10
68127;BMP180;54931;52.098;21.006;2022-09-09T05:51:12;100036.20;;;12.10
68127;BMP180;54931;52.098;21.006;2022-09-09T05:53:42;100033.60;;;12.10
68127;BMP180;54931;52.098;21.006;2022-09-09T05:56:18;100032.20;;;12.10
68127;BMP180;54931;52.098;21.006;2022-09-09T05:58:46;100037.40;;;12.16
68127;BMP180;54931;52.098;21.006;2022-09-09T06:01:19;100040.20;;;12.20
68127;BMP180;54931;52.098;21.006;2022-09-09T06:03:47;100046.40;;;12.30
68127;BMP180;54931;52.098;21.006;2022-09-09T06:06:17;100053.40;;;12.24
68127;BMP180;54931;52.098;21.006;2022-09-09T06:08:48;100051.00;;;12.22
68127;BMP180;54931;52.098;21.006;2022-09-09T06:11:19;100056.40;;;12.20
68127;BMP180;54931;52.098;21.006;2022-09-09T06:13:47;100051.40;;;12.28
68127;BMP180;54931;52.098;21.006;2022-09-09T06:16:16;100055.60;;;12.30
68127;BMP180;54931;52.098;21.006;2022-09-09T06:18:44;100056.40;;;12.30
68127;BMP180;54931;52.098;21.006;2022-09-09T06:21:15;100059.60;;;12.30
68127;BMP180;54931;52.098;21.006;2022-09-09T06:23:43;100060.80;;;12.34
68127;BMP180;54931;52.098;21.006;2022-09-09T06:26:12;100062.00;;;12.36
68127;BMP180;54931;52.098;21.006;2022-09-09T06:28:40;100062.20;;;12.40
68127;BMP180;54931;52.098;21.006;2022-09-09T06:31:11;100068.40;;;12.40
68127;BMP180;54931;52.098;21.006;2022-09-09T06:33:40;100066.60;;;12.40
68127;BMP180;54931;52.098;21.006;2022-09-09T06:36:16;100068.40;;;12.44
68127;BMP180;54931;52.098;21.006;2022-09-09T06:38:43;100065.00;;;12.46
68127;BMP180;54931;52.098;21.006;2022-09-09T06:41:12;100064.00;;;12.50
68127;BMP180;54931;52.098;21.006;2022-09-09T06:43:39;100063.20;;;12.50
68127;BMP180;54931;52.098;21.006;2022-09-09T06:46:10;100067.40;;;12.52
68127;BMP180;54931;52.098;21.006;2022-09-09T06:48:41;100073.00;;;12.60
68127;BMP180;54931;52.098;21.006;2022-09-09T06:51:20;100074.60;;;12.60
68127;BMP180;54931;52.098;21.006;2022-09-09T06:53:51;100076.00;;;12.60
68127;BMP180;54931;52.098;21.006;2022-09-09T06:56:27;100077.20;;;12.54
68127;BMP180;54931;52.098;21.006;2022-09-09T06:58:56;100073.80;;;12.50
68127;BMP180;54931;52.098;21.006;2022-09-09T07:01:30;100072.20;;;12.54
68127;BMP180;54931;52.098;21.006;2022-09-09T07:03:59;100073.80;;;12.60
68127;BMP180;54931;52.098;21.006;2022-09-09T07:06:35;100078.00;;;12.60
68127;BMP180;54931;52.098;21.006;2022-09-09T07:09:05;100081.00;;;12.62
68127;BMP180;54931;52.098;21.006;2022-09-09T07:11:39;100084.60;;;12.70
68127;BMP180;54931;52.098;21.006;2022-09-09T07:14:08;100088.60;;;12.80
68127;BMP180;54931;52.098;21.006;2022-09-09T07:16:35;100090.40;;;12.80
68127;BMP180;54931;52.098;21.006;2022-09-09T07:19:04;100093.40;;;12.80
68127;BMP180;54931;52.098;21.006;2022-09-09T07:21:33;100093.00;;;12.80
68127;BMP180;54931;52.098;21.006;2022-09-09T07:24:00;100094.40;;;12.80
68127;BMP180;54931;52.098;21.006;2022-09-09T07:26:30;100091.40;;;12.80
68127;BMP180;54931;52.098;21.006;2022-09-09T07:28:57;100093.00;;;12.80
68127;BMP180;54931;52.098;21.006;2022-09-09T07:31:27;100095.20;;;12.80
68127;BMP180;54931;52.098;21.006;2022-09-09T07:33:54;100093.40;;;12.76
68127;BMP180;54931;52.098;21.006;2022-09-09T07:36:40;100102.00;;;12.80
68127;BMP180;54931;52.098;21.006;2022-09-09T07:39:10;100102.00;;;12.90
68127;BMP180;54931;52.098;21.006;2022-09-09T07:41:42;100104.20;;;13.00
68127;BMP180;54931;52.098;21.006;2022-09-09T07:46:41;100103.20;;;12.90
68127;BMP180;54931;52.098;21.006;2022-09-09T07:49:09;100107.80;;;12.90
68127;BMP180;54931;52.098;21.006;2022-09-09T07:51:40;100106.20;;;12.90
68127;BMP180;54931;52.098;21.006;2022-09-09T07:54:10;100118.40;;;12.94
68127;BMP180;54931;52.098;21.006;2022-09-09T07:56:39;100120.00;;;13.00
68127;BMP180;54931;52.098;21.006;2022-09-09T07:59:08;100127.00;;;13.10
68127;BMP180;54931;52.098;21.006;2022-09-09T08:01:44;100131.20;;;13.10
68127;BMP180;54931;52.098;21.006;2022-09-09T08:04:15;100135.40;;;13.20
68127;BMP180;54931;52.098;21.006;2022-09-09T08:06:57;100144.00;;;13.20
68127;BMP180;54931;52.098;21.006;2022-09-09T08:09:26;100141.60;;;13.10
68127;BMP180;54931;52.098;21.006;2022-09-09T08:11:56;100140.80;;;13.20
68127;BMP180;54931;52.098;21.006;2022-09-09T08:14:23;100140.60;;;13.20
68127;BMP180;54931;52.098;21.006;2022-09-09T08:16:51;100144.00;;;13.30
68127;BMP180;54931;52.098;21.006;2022-09-09T08:19:19;100145.60;;;13.30
68127;BMP180;54931;52.098;21.006;2022-09-09T08:21:47;100146.80;;;13.30
68127;BMP180;54931;52.098;21.006;2022-09-09T08:24:16;100140.00;;;13.30
68127;BMP180;54931;52.098;21.006;2022-09-09T08:26:45;100140.80;;;13.40
68127;BMP180;54931;52.098;21.006;2022-09-09T08:29:13;100145.80;;;13.44
68127;BMP180;54931;52.098;21.006;2022-09-09T08:31:42;100144.00;;;13.50
68127;BMP180;54931;52.098;21.006;2022-09-09T08:34:09;100148.20;;;13.48
68127;BMP180;54931;52.098;21.006;2022-09-09T08:36:42;100151.20;;;13.52
68127;BMP180;54931;52.098;21.006;2022-09-09T08:39:11;100152.00;;;13.50
68127;BMP180;54931;52.098;21.006;2022-09-09T08:50:22;100152.80;;;13.80
68127;BMP180;54931;52.098;21.006;2022-09-09T08:55:47;100148.00;;;13.80
68127;BMP180;54931;52.098;21.006;2022-09-09T08:58:21;100152.40;;;13.80
68127;BMP180;54931;52.098;21.006;2022-09-09T09:03:43;100156.60;;;13.90
68127;BMP180;54931;52.098;21.006;2022-09-09T09:09:01;100163.20;;;14.00
68127;BMP180;54931;52.098;21.006;2022-09-09T09:11:38;100166.80;;;14.00
68127;BMP180;54931;52.098;21.006;2022-09-09T09:14:22;100171.80;;;14.00
68127;BMP180;54931;52.098;21.006;2022-09-09T09:19:23;100170.20;;;13.90
68127;BMP180;54931;52.098;21.006;2022-09-09T09:22:04;100174.60;;;14.00
68127;BMP180;54931;52.098;21.006;2022-09-09T09:27:40;100182.60;;;14.00
68127;BMP180;54931;52.098;21.006;2022-09-09T09:30:23;100185.40;;;14.10
68127;BMP180;54931;52.098;21.006;2022-09-09T09:32:56;100183.60;;;14.10
68127;BMP180;54931;52.098;21.006;2022-09-09T09:35:23;100184.60;;;14.20
68127;BMP180;54931;52.098;21.006;2022-09-09T09:37:51;100186.80;;;14.20
68127;BMP180;54931;52.098;21.006;2022-09-09T09:40:20;100184.20;;;14.20
68127;BMP180;54931;52.098;21.006;2022-09-09T09:45:33;100181.20;;;14.30
68127;BMP180;54931;52.098;21.006;2022-09-09T09:48:06;100176.00;;;14.38
68127;BMP180;54931;52.098;21.006;2022-09-09T09:50:35;100184.20;;;14.50
68127;BMP180;54931;52.098;21.006;2022-09-09T09:53:25;100183.60;;;14.50
68127;BMP180;54931;52.098;21.006;2022-09-09T09:56:10;100184.40;;;14.50
68127;BMP180;54931;52.098;21.006;2022-09-09T10:01:40;100183.60;;;14.50
68127;BMP180;54931;52.098;21.006;2022-09-09T10:04:19;100186.80;;;14.50
68127;BMP180;54931;52.098;21.006;2022-09-09T10:06:47;100193.40;;;14.54
68127;BMP180;54931;52.098;21.006;2022-09-09T10:09:23;100196.40;;;14.60
68127;BMP180;54931;52.098;21.006;2022-09-09T10:14:32;100199.80;;;14.70
68127;BMP180;54931;52.098;21.006;2022-09-09T10:17:05;100197.20;;;14.60
68127;BMP180;54931;52.098;21.006;2022-09-09T10:19:37;100196.80;;;14.56
68127;BMP180;54931;52.098;21.006;2022-09-09T10:22:28;100196.20;;;14.52
68127;BMP180;54931;52.098;21.006;2022-09-09T10:33:37;100223.60;;;14.60
68127;BMP180;54931;52.098;21.006;2022-09-09T10:36:23;100225.60;;;14.50
68127;BMP180;54931;52.098;21.006;2022-09-09T10:39:35;100236.80;;;14.56
68127;BMP180;54931;52.098;21.006;2022-09-09T10:50:14;100241.40;;;14.60
68127;BMP180;54931;52.098;21.006;2022-09-09T10:56:06;100249.20;;;14.68
68127;BMP180;54931;52.098;21.006;2022-09-09T10:59:22;100248.20;;;14.70
68127;BMP180;54931;52.098;21.006;2022-09-09T11:01:53;100250.80;;;14.70
68127;BMP180;54931;52.098;21.006;2022-09-09T11:04:34;100249.00;;;14.70
68127;BMP180;54931;52.098;21.006;2022-09-09T11:07:09;100252.60;;;14.70
68127;BMP180;54931;52.098;21.006;2022-09-09T11:09:42;100255.20;;;14.80
68127;BMP180;54931;52.098;21.006;2022-09-09T11:12:15;100254.60;;;14.90
68127;BMP180;54931;52.098;21.006;2022-09-09T11:14:50;100255.40;;;14.90
68127;BMP180;54931;52.098;21.006;2022-09-09T11:17:23;100255.40;;;14.90
68127;BMP180;54931;52.098;21.006;2022-09-09T11:19:51;100258.00;;;14.90
68127;BMP180;54931;52.098;21.006;2022-09-09T11:27:35;100261.80;;;14.90
68127;BMP180;54931;52.098;21.006;2022-09-09T11:40:59;100273.80;;;15.10
68127;BMP180;54931;52.098;21.006;2022-09-09T11:43:31;100272.20;;;15.00
68127;BMP180;54931;52.098;21.006;2022-09-09T11:46:01;100271.20;;;15.00
68127;BMP180;54931;52.098;21.006;2022-09-09T11:48:40;100271.40;;;15.00
68127;BMP180;54931;52.098;21.006;2022-09-09T11:51:26;100275.60;;;15.10
68127;BMP180;54931;52.098;21.006;2022-09-09T11:53:55;100274.80;;;15.10
68127;BMP180;54931;52.098;21.006;2022-09-09T11:56:32;100272.80;;;15.10
68127;BMP180;54931;52.098;21.006;2022-09-09T11:59:06;100275.20;;;15.02
68127;BMP180;54931;52.098;21.006;2022-09-09T12:04:41;100273.00;;;15.00
68127;BMP180;54931;52.098;21.006;2022-09-09T12:12:36;100283.20;;;14.90
68127;BMP180;54931;52.098;21.006;2022-09-09T12:17:49;100280.20;;;15.00
68127;BMP180;54931;52.098;21.006;2022-09-09T12:20:30;100282.80;;;15.10
68127;BMP180;54931;52.098;21.006;2022-09-09T12:23:22;100287.00;;;15.10
68127;BMP180;54931;52.098;21.006;2022-09-09T12:26:07;100287.00;;;15.10
68127;BMP180;54931;52.098;21.006;2022-09-09T12:34:33;100288.40;;;15.30
68127;BMP180;54931;52.098;21.006;2022-09-09T12:37:17;100282.60;;;15.40
68127;BMP180;54931;52.098;21.006;2022-09-09T12:39:55;100278.40;;;15.40
68127;BMP180;54931;52.098;21.006;2022-09-09T12:42:23;100272.40;;;15.30
68127;BMP180;54931;52.098;21.006;2022-09-09T12:45:02;100270.60;;;15.30
68127;BMP180;54931;52.098;21.006;2022-09-09T12:47:44;100263.60;;;15.36
68127;BMP180;54931;52.098;21.006;2022-09-09T12:50:21;100267.80;;;15.50
68127;BMP180;54931;52.098;21.006;2022-09-09T12:52:51;100270.20;;;15.52
68127;BMP180;54931;52.098;21.006;2022-09-09T12:55:28;100270.40;;;15.50
68127;BMP180;54931;52.098;21.006;2022-09-09T12:57:57;100270.20;;;15.56
68127;BMP180;54931;52.098;21.006;2022-09-09T13:00:27;100278.40;;;15.60
68127;BMP180;54931;52.098;21.006;2022-09-09T13:03:03;100280.80;;;15.60
68127;BMP180;54931;52.098;21.006;2022-09-09T13:05:41;100281.80;;;15.52
68127;BMP180;54931;52.098;21.006;2022-09-09T13:08:10;100279.40;;;15.48
68127;BMP180;54931;52.098;21.006;2022-09-09T13:10:50;100278.60;;;15.48
68127;BMP180;54931;52.098;21.006;2022-09-09T13:13:25;100271.40;;;15.50
68127;BMP180;54931;52.098;21.006;2022-09-09T13:15:55;100274.00;;;15.50
68127;BMP180;54931;52.098;21.006;2022-09-09T13:18:33;100269.60;;;15.40
68127;BMP180;54931;52.098;21.006;2022-09-09T13:21:00;100266.80;;;15.38
68127;BMP180;54931;52.098;21.006;2022-09-09T13:23:30;100268.00;;;15.26
68127;BMP180;54931;52.098;21.006;2022-09-09T13:26:06;100266.00;;;15.20
68127;BMP180;54931;52.098;21.006;2022-09-09T13:28:48;100264.40;;;15.20
68127;BMP180;54931;52.098;21.006;2022-09-09T13:31:30;100256.40;;;15.20
68127;BMP180;54931;52.098;21.006;2022-09-09T13:33:59;100256.80;;;15.20
68127;BMP180;54931;52.098;21.006;2022-09-09T13:36:31;100257.40;;;15.10
68127;BMP180;54931;52.098;21.006;2022-09-09T13:39:01;100259.20;;;15.10
68127;BMP180;54931;52.098;21.006;2022-09-09T13:41:36;100265.40;;;15.10
68127;BMP180;54931;52.098;21.006;2022-09-09T13:44:04;100258.40;;;15.04
68127;BMP180;54931;52.098;21.006;2022-09-09T13:51:46;100267.20;;;14.90
68127;BMP180;54931;52.098;21.006;2022-09-09T13:54:16;100269.60;;;14.90
68127;BMP180;54931;52.098;21.006;2022-09-09T13:56:45;100272.60;;;14.92
68127;BMP180;54931;52.098;21.006;2022-09-09T13:59:18;100264.40;;;15.00
68127;BMP180;54931;52.098;21.006;2022-09-09T14:01:48;100271.20;;;14.90
68127;BMP180;54931;52.098;21.006;2022-09-09T14:04:19;100275.80;;;14.90
68127;BMP180;54931;52.098;21.006;2022-09-09T14:06:50;100277.60;;;14.80
68127;BMP180;54931;52.098;21.006;2022-09-09T14:09:17;100281.20;;;14.80
68127;BMP180;54931;52.098;21.006;2022-09-09T14:11:45;100281.20;;;14.86
68127;BMP180;54931;52.098;21.006;2022-09-09T14:14:13;100282.80;;;14.90
68127;BMP180;54931;52.098;21.006;2022-09-09T14:16:40;100286.60;;;14.90
68127;BMP180;54931;52.098;21.006;2022-09-09T14:19:08;100283.00;;;14.82
68127;BMP180;54931;52.098;21.006;2022-09-09T14:21:36;100271.60;;;14.90
68127;BMP180;54931;52.098;21.006;2022-09-09T14:24:03;100272.80;;;14.90
68127;BMP180;54931;52.098;21.006;2022-09-09T14:26:30;100274.80;;;15.00
68127;BMP180;54931;52.098;21.006;2022-09-09T14:28:57;100283.40;;;15.00
68127;BMP180;54931;52.098;21.006;2022-09-09T14:31:25;100287.20;;;15.10
68127;BMP180;54931;52.098;21.006;2022-09-09T14:33:52;100287.00;;;15.10
68127;BMP180;54931;52.098;21.006;2022-09-09T14:36:20;100291.40;;;15.10
68127;BMP180;54931;52.098;21.006;2022-09-09T14:38:47;100286.60;;;15.20
68127;BMP180;54931;52.098;21.006;2022-09-09T14:41:17;100284.20;;;15.20
68127;BMP180;54931;52.098;21.006;2022-09-09T14:43:45;100286.60;;;15.30
68127;BMP180;54931;52.098;21.006;2022-09-09T14:46:15;100290.80;;;15.30
68127;BMP180;54931;52.098;21.006;2022-09-09T14:48:42;100284.80;;;15.40
68127;BMP180;54931;52.098;21.006;2022-09-09T14:51:13;100279.40;;;15.40
68127;BMP180;54931;52.098;21.006;2022-09-09T14:53:42;100278.40;;;15.50
68127;BMP180;54931;52.098;21.006;2022-09-09T14:56:14;100281.00;;;15.52
68127;BMP180;54931;52.098;21.006;2022-09-09T14:58:41;100286.60;;;15.60
68127;BMP180;54931;52.098;21.006;2022-09-09T15:01:10;100284.20;;;15.60
68127;BMP180;54931;52.098;21.006;2022-09-09T15:03:39;100281.00;;;15.62
68127;BMP180;54931;52.098;21.006;2022-09-09T15:06:09;100283.20;;;15.70
68127;BMP180;54931;52.098;21.006;2022-09-09T15:08:38;100282.60;;;15.70
68127;BMP180;54931;52.098;21.006;2022-09-09T15:11:06;100277.40;;;15.60
68127;BMP180;54931;52.098;21.006;2022-09-09T15:13:38;100278.80;;;15.52
68127;BMP180;54931;52.098;21.006;2022-09-09T15:16:17;100280.80;;;15.44
68127;BMP180;54931;52.098;21.006;2022-09-09T15:18:45;100279.80;;;15.34
68127;BMP180;54931;52.098;21.006;2022-09-09T15:21:15;100280.60;;;15.26
68127;BMP180;54931;52.098;21.006;2022-09-09T15:23:43;100282.60;;;15.30
68127;BMP180;54931;52.098;21.006;2022-09-09T15:26:11;100287.60;;;15.30
68127;BMP180;54931;52.098;21.006;2022-09-09T15:28:41;100285.20;;;15.26
68127;BMP180;54931;52.098;21.006;2022-09-09T15:31:11;100286.20;;;15.30
68127;BMP180;54931;52.098;21.006;2022-09-09T15:33:38;100286.60;;;15.20
68127;BMP180;54931;52.098;21.006;2022-09-09T15:36:35;100291.20;;;15.30
68127;BMP180;54931;52.098;21.006;2022-09-09T15:39:06;100287.60;;;15.30
68127;BMP180;54931;52.098;21.006;2022-09-09T15:41:34;100288.40;;;15.40
68127;BMP180;54931;52.098;21.006;2022-09-09T15:44:01;100283.40;;;15.44
68127;BMP180;54931;52.098;21.006;2022-09-09T15:46:36;100279.60;;;15.42
68127;BMP180;54931;52.098;21.006;2022-09-09T15:49:07;100277.60;;;15.34
68127;BMP180;54931;52.098;21.006;2022-09-09T15:51:40;100280.20;;;15.30
68127;BMP180;54931;52.098;21.006;2022-09-09T15:54:19;100280.00;;;15.30
68127;BMP180;54931;52.098;21.006;2022-09-09T15:56:52;100286.00;;;15.20
68127;BMP180;54931;52.098;21.006;2022-09-09T15:59:22;100290.00;;;15.20
68127;BMP180;54931;52.098;21.006;2022-09-09T16:01:50;100287.80;;;15.14
68127;BMP180;54931;52.098;21.006;2022-09-09T16:04:22;100292.00;;;15.10
68127;BMP180;54931;52.098;21.006;2022-09-09T16:07:03;100284.20;;;15.00
68127;BMP180;54931;52.098;21.006;2022-09-09T16:09:31;100284.60;;;15.00
68127;BMP180;54931;52.098;21.006;2022-09-09T16:12:00;100282.00;;;14.92
68127;BMP180;54931;52.098;21.006;2022-09-09T16:14:33;100281.80;;;14.96
68127;BMP180;54931;52.098;21.006;2022-09-09T16:17:02;100284.40;;;15.00
68127;BMP180;54931;52.098;21.006;2022-09-09T16:19:29;100281.60;;;15.00
68127;BMP180;54931;52.098;21.006;2022-09-09T16:21:56;100286.40;;;15.00
68127;BMP180;54931;52.098;21.006;2022-09-09T16:24:24;100278.80;;;14.94